createdAt,value
2022-08-08T00:04:16.340Z,15.65
2022-08-08T00:09:33.109Z,15.80
2022-08-08T00:14:48.311Z,15.67
2022-08-08T00:20:07.731Z,15.43
2022-08-08T00:25:28.615Z,15.22
2022-08-08T00:31:00.702Z,15.17
2022-08-08T00:36:25.616Z,14.99
2022-08-08T00:42:09.077Z,14.98
2022-08-08T00:48:04.917Z,15.17
2022-08-08T00:53:13.922Z,15.25
2022-08-08T00:58:37.153Z,15.17
2022-08-08T01:04:02.026Z,15.17
2022-08-08T01:09:35.669Z,15.34
2022-08-08T01:15:37.112Z,15.34
2022-08-08T01:21:09.467Z,15.20
2022-08-08T01:26:49.213Z,15.40
2022-08-08T01:32:43.428Z,15.41
2022-08-08T01:38:27.545Z,15.54
2022-08-08T01:43:54.347Z,15.54
2022-08-08T01:49:23.429Z,15.02
2022-08-08T01:55:45.038Z,14.79
2022-08-08T02:00:48.924Z,14.95
2022-08-08T02:06:32.552Z,14.91
2022-08-08T02:11:52.995Z,14.85
2022-08-08T02:17:18.098Z,14.79
2022-08-08T02:22:45.992Z,14.85
2022-08-08T02:28:09.415Z,14.96
2022-08-08T02:34:00.606Z,14.83
2022-08-08T02:39:41.137Z,14.97
2022-08-08T02:44:38.351Z,15.03
2022-08-08T02:50:18.032Z,15.18
2022-08-08T02:55:25.477Z,14.97
2022-08-08T03:00:55.665Z,14.79
2022-08-08T03:06:34.314Z,14.59
2022-08-08T03:12:02.504Z,14.56
2022-08-08T03:17:20.072Z,14.29
2022-08-08T03:22:38.814Z,14.40
2022-08-08T03:27:56.776Z,14.45
2022-08-08T03:33:54.995Z,14.64
2022-08-08T03:38:54.881Z,14.86
2022-08-08T03:44:05.689Z,14.54
2022-08-08T03:49:57.582Z,14.94
2022-08-08T03:55:02.280Z,15.22
2022-08-08T04:00:20.015Z,15.38
2022-08-08T04:05:36.694Z,15.20
2022-08-08T04:10:59.670Z,14.95
2022-08-08T04:16:05.651Z,15.02
2022-08-08T04:21:20.020Z,15.09
2022-08-08T04:26:40.070Z,15.31
2022-08-08T04:32:00.067Z,15.68
2022-08-08T04:37:09.834Z,15.84
2022-08-08T04:42:15.691Z,15.82
2022-08-08T04:47:19.639Z,15.73
2022-08-08T04:52:25.388Z,16.04
2022-08-08T04:57:38.867Z,16.10
2022-08-08T05:02:43.342Z,16.34
2022-08-08T05:07:47.259Z,16.71
2022-08-08T05:12:59.987Z,17.07
2022-08-08T05:18:08.084Z,18.21
2022-08-08T05:23:18.101Z,19.21
2022-08-08T05:28:56.604Z,20.17
2022-08-08T05:33:49.462Z,21.15
2022-08-08T05:39:00.441Z,21.99
2022-08-08T05:44:34.774Z,22.63
2022-08-08T05:49:38.910Z,22.97
2022-08-08T05:55:03.311Z,23.44
2022-08-08T06:00:25.424Z,23.98
2022-08-08T06:05:36.361Z,24.42
2022-08-08T06:10:51.882Z,25.06
2022-08-08T06:16:09.246Z,26.40
2022-08-08T06:21:51.864Z,30.75
2022-08-08T06:27:11.064Z,33.34
2022-08-08T06:32:29.024Z,34.66
2022-08-08T06:37:37.679Z,36.34
2022-08-08T06:43:06.620Z,37.59
2022-08-08T06:48:22.411Z,37.83
2022-08-08T06:53:39.554Z,38.00
2022-08-08T06:58:45.620Z,37.21
2022-08-08T07:04:36.349Z,37.69
2022-08-08T07:09:45.401Z,36.59
2022-08-08T07:15:05.408Z,35.46
2022-08-08T07:20:12.433Z,35.04
2022-08-08T07:25:29.379Z,34.21
2022-08-08T07:30:39.073Z,33.54
2022-08-08T07:35:45.201Z,33.54
2022-08-08T07:40:55.972Z,34.01
2022-08-08T07:46:23.755Z,33.72
2022-08-08T07:51:45.030Z,34.05
2022-08-08T07:57:00.266Z,33.98
2022-08-08T08:02:35.953Z,33.18
2022-08-08T08:07:38.627Z,32.79
2022-08-08T08:12:54.395Z,32.68
2022-08-08T08:18:01.621Z,33.58
2022-08-08T08:23:06.118Z,33.88
2022-08-08T08:28:09.892Z,34.12
2022-08-08T08:33:15.796Z,34.54
2022-08-08T08:38:19.920Z,34.77
2022-08-08T08:43:33.201Z,34.57
2022-08-08T08:48:49.144Z,34.47
2022-08-08T08:53:59.959Z,35.48
2022-08-08T08:59:09.090Z,35.46
2022-08-08T09:04:31.208Z,35.96
2022-08-08T09:09:57.244Z,36.58
2022-08-08T09:15:06.703Z,35.74
2022-08-08T09:21:57.058Z,34.32
2022-08-08T09:25:54.503Z,34.76
2022-08-08T09:31:14.904Z,35.19
2022-08-08T09:36:28.617Z,34.85
2022-08-08T09:41:54.763Z,34.29
2022-08-08T09:48:02.025Z,35.66
2022-08-08T09:52:55.427Z,36.58
2022-08-08T09:58:06.602Z,34.90
2022-08-08T10:03:15.404Z,35.49
2022-08-08T10:08:34.626Z,34.78
2022-08-08T10:13:38.389Z,35.53
2022-08-08T10:24:28.600Z,34.07
2022-08-08T10:30:01.138Z,34.89
2022-08-08T10:35:11.540Z,35.49
2022-08-08T10:40:32.267Z,35.45
2022-08-08T10:45:56.841Z,35.56
2022-08-08T10:51:12.235Z,35.43
2022-08-08T10:56:27.699Z,36.64
2022-08-08T11:01:39.437Z,35.31
2022-08-08T11:06:47.317Z,34.97
2022-08-08T11:12:05.994Z,35.54
2022-08-08T11:17:58.807Z,35.72
2022-08-08T11:22:42.628Z,35.62
2022-08-08T11:27:48.937Z,35.21
2022-08-08T11:32:57.701Z,35.21
2022-08-08T11:38:37.030Z,35.69
2022-08-08T11:43:39.335Z,36.34
2022-08-08T11:48:47.145Z,36.27
2022-08-08T11:53:59.197Z,34.61
2022-08-08T11:59:09.832Z,37.26
2022-08-08T12:04:12.530Z,37.78
2022-08-08T12:09:16.869Z,36.28
2022-08-08T12:14:29.298Z,34.48
2022-08-08T12:19:51.297Z,34.64
2022-08-08T12:24:56.585Z,33.55
2022-08-08T12:30:01.853Z,33.30
2022-08-08T12:35:17.549Z,32.64
2022-08-08T12:40:22.991Z,32.59
2022-08-08T12:45:58.836Z,32.37
2022-08-08T12:50:58.557Z,32.96
2022-08-08T12:56:18.932Z,33.17
2022-08-08T13:01:38.797Z,33.16
2022-08-08T13:07:00.937Z,33.05
2022-08-08T13:12:47.146Z,33.36
2022-08-08T13:18:07.607Z,33.47
2022-08-08T13:23:36.064Z,33.02
2022-08-08T13:28:42.039Z,32.49
2022-08-08T13:33:49.740Z,32.40
2022-08-08T13:38:52.830Z,32.26
2022-08-08T13:43:58.256Z,31.75
2022-08-08T13:50:33.430Z,31.20
2022-08-08T13:54:31.270Z,31.38
2022-08-08T13:59:39.199Z,31.83
2022-08-08T14:05:09.563Z,31.76
2022-08-08T14:10:33.713Z,31.68
2022-08-08T14:15:50.079Z,31.73
2022-08-08T14:21:03.005Z,31.78
2022-08-08T14:26:10.907Z,31.53
2022-08-08T14:31:20.210Z,31.52
2022-08-08T14:36:54.392Z,31.71
2022-08-08T14:42:07.540Z,31.63
2022-08-08T14:47:16.577Z,31.73
2022-08-08T14:52:23.239Z,31.90
2022-08-08T14:58:02.541Z,31.84
2022-08-08T15:02:59.093Z,32.00
2022-08-08T15:08:12.813Z,31.67
2022-08-08T15:13:25.242Z,31.56
2022-08-08T15:18:38.021Z,31.05
2022-08-08T15:23:42.557Z,30.73
2022-08-08T15:28:45.596Z,30.24
2022-08-08T15:33:58.845Z,30.19
2022-08-08T15:39:02.370Z,30.40
2022-08-08T15:44:05.578Z,30.50
2022-08-08T15:49:10.008Z,30.16
2022-08-08T15:54:18.372Z,30.22
2022-08-08T15:59:21.391Z,30.42
2022-08-08T16:04:43.758Z,30.07
2022-08-08T16:13:03.836Z,30.01
2022-08-08T16:15:12.570Z,29.88
2022-08-08T16:20:20.120Z,29.77
2022-08-08T16:25:24.373Z,29.70
2022-08-08T16:30:45.489Z,29.54
2022-08-08T16:35:49.602Z,29.26
2022-08-08T16:40:52.485Z,29.27
2022-08-08T16:46:36.690Z,28.69
2022-08-08T16:55:05.349Z,28.68
2022-08-08T16:56:48.222Z,28.19
2022-08-08T17:02:03.330Z,27.72
2022-08-08T17:07:05.981Z,27.66
2022-08-08T17:12:09.767Z,27.38
2022-08-08T17:17:41.635Z,26.99
2022-08-08T17:22:43.113Z,26.93
2022-08-08T17:27:47.512Z,26.44
2022-08-08T17:34:30.401Z,26.24
2022-08-08T17:38:12.525Z,25.75
2022-08-08T17:43:16.940Z,25.10
2022-08-08T17:48:30.917Z,24.81
2022-08-08T17:53:43.230Z,24.34
2022-08-08T17:58:46.498Z,23.80
2022-08-08T18:03:52.594Z,23.60
2022-08-08T18:08:55.447Z,23.44
2022-08-08T18:13:59.166Z,22.93
2022-08-08T18:19:11.250Z,22.55
2022-08-08T18:24:21.330Z,22.33
2022-08-08T18:29:33.698Z,22.08
2022-08-08T18:34:40.397Z,22.21
2022-08-08T18:39:45.163Z,22.05
2022-08-08T18:45:09.159Z,22.09
2022-08-08T18:50:27.168Z,21.99
2022-08-08T18:55:29.581Z,21.88
2022-08-08T19:00:50.212Z,21.75
2022-08-08T19:05:52.683Z,21.71
2022-08-08T19:10:59.871Z,21.50
2022-08-08T19:16:05.886Z,21.42
2022-08-08T19:21:29.089Z,21.41
2022-08-08T19:26:37.775Z,21.58
2022-08-08T19:31:46.848Z,21.52
2022-08-08T19:36:55.373Z,21.51
2022-08-08T19:42:00.876Z,21.66
2022-08-08T19:47:06.476Z,21.60
2022-08-08T19:52:10.501Z,21.41
2022-08-08T19:57:15.889Z,21.39
2022-08-08T20:02:18.387Z,21.27
2022-08-08T20:08:29.112Z,21.14
2022-08-08T20:12:59.153Z,21.18
2022-08-08T20:18:15.395Z,21.06
2022-08-08T20:23:19.830Z,21.16
2022-08-08T20:28:32.286Z,21.28
2022-08-08T20:34:27.643Z,21.07
2022-08-08T20:38:57.757Z,21.04
2022-08-08T20:44:01.197Z,20.77
2022-08-08T20:49:05.157Z,20.68
2022-08-08T20:54:14.077Z,20.67
2022-08-08T20:59:18.713Z,20.49
2022-08-08T21:04:27.573Z,20.65
2022-08-08T21:09:31.827Z,20.74
2022-08-08T21:14:53.134Z,20.38
2022-08-08T21:19:58.910Z,20.74
2022-08-08T21:25:02.169Z,21.08
2022-08-08T21:30:10.887Z,20.95
2022-08-08T21:36:17.840Z,20.94
2022-08-08T21:40:55.026Z,20.88
2022-08-08T21:48:07.326Z,20.87
2022-08-08T21:54:17.089Z,20.53
2022-08-08T21:56:46.325Z,20.28
2022-08-08T22:01:52.487Z,19.77
2022-08-08T22:06:57.997Z,19.72
2022-08-08T22:12:09.446Z,19.45
2022-08-08T22:17:12.508Z,19.26
2022-08-08T22:22:16.021Z,19.12
2022-08-08T22:27:38.633Z,18.76
2022-08-08T22:32:42.533Z,18.49
2022-08-08T22:37:54.765Z,18.08
2022-08-08T22:42:57.557Z,17.77
2022-08-08T22:48:00.065Z,17.83
2022-08-08T22:54:31.102Z,17.68
2022-08-08T22:58:31.144Z,17.41
2022-08-08T23:03:53.535Z,17.32
2022-08-08T23:09:00.122Z,17.35
2022-08-08T23:14:02.928Z,17.29
2022-08-08T23:19:08.812Z,17.37
2022-08-08T23:24:11.462Z,17.21
2022-08-08T23:29:14.720Z,17.09
2022-08-08T23:34:19.498Z,17.14
2022-08-08T23:39:22.102Z,17.11
2022-08-08T23:44:24.634Z,16.86
2022-08-08T23:49:31.326Z,16.85
2022-08-08T23:54:42.872Z,16.38
